SBSM/RIA METAR and TAF weather

Enter ICAO airport designator
Station Type Date Time Source
SBSM METAR 2022/06/28 09:00 UTC NOAA

SBSM 280900Z VRB03KT 9999 FEW003 BKN080 17/16 Q1012


Station Type Date Time Source
SBSM Decoded METAR 2022/06/28 09:00 UTC NOAA

Santa Maria Aero-Porto , Brazil (SBSM) 29-43S 053-42W
Jun 28, 2022 - 05:00 AM EDT / 2022.06.28 0900 UTC
Wind: Variable at 3 MPH (3 KT):0
Visibility: greater than 7 mile(s):0
Sky conditions: mostly cloudy
Temperature: 62 F (17 C)
Dew Point: 60 F (16 C)
Relative Humidity: 93%
Pressure (altimeter): 29.88 in. Hg (1012 hPa)
ob: SBSM 280900Z VRB03KT 9999 FEW003 BKN080 17/16 Q1012
cycle: 9

Station Type Date Time Source
SBSM TAF 2022/06/28 06:27 UTC NOAA

TAF SBSM 280300Z 2806/2818 33004KT 9999 SCT010 TN15/2808Z TX19/2817Z
TEMPO 2807/2810 1500 BR SCT005
BECMG 2813/2815 7000 BKN040 FEW040TCU
TEMPO 2816/2818 4500 RA BKN009 FEW030TCU
RMK PEU

Example: see airport list